sensor_id;sensor_type;location;lat;lon;timestamp;P1;durP1;ratioP1;P2;durP2;ratioP2
8881;SDS011;4477;48.736;9.176;2022-12-10T00:01:19;61.33;;;41.77;;
8881;SDS011;4477;48.736;9.176;2022-12-10T00:03:49;58.83;;;41.47;;
8881;SDS011;4477;48.736;9.176;2022-12-10T00:06:16;57.30;;;40.87;;
8881;SDS011;4477;48.736;9.176;2022-12-10T00:08:45;56.97;;;40.90;;
8881;SDS011;4477;48.736;9.176;2022-12-10T00:11:13;57.33;;;41.47;;
8881;SDS011;4477;48.736;9.176;2022-12-10T00:13:41;56.07;;;41.20;;
8881;SDS011;4477;48.736;9.176;2022-12-10T00:16:09;61.50;;;43.13;;
8881;SDS011;4477;48.736;9.176;2022-12-10T00:18:37;60.27;;;41.23;;
8881;SDS011;4477;48.736;9.176;2022-12-10T00:21:07;56.50;;;41.20;;
8881;SDS011;4477;48.736;9.176;2022-12-10T00:23:35;60.37;;;40.97;;
8881;SDS011;4477;48.736;9.176;2022-12-10T00:26:02;61.53;;;40.23;;
8881;SDS011;4477;48.736;9.176;2022-12-10T00:28:30;60.50;;;41.37;;
8881;SDS011;4477;48.736;9.176;2022-12-10T00:31:01;62.27;;;42.83;;
8881;SDS011;4477;48.736;9.176;2022-12-10T00:33:28;59.03;;;41.47;;
8881;SDS011;4477;48.736;9.176;2022-12-10T00:35:55;59.97;;;40.37;;
8881;SDS011;4477;48.736;9.176;2022-12-10T00:38:28;60.23;;;42.33;;
8881;SDS011;4477;48.736;9.176;2022-12-10T00:40:55;62.63;;;42.53;;
8881;SDS011;4477;48.736;9.176;2022-12-10T00:43:22;61.23;;;43.33;;
8881;SDS011;4477;48.736;9.176;2022-12-10T00:45:48;64.13;;;42.87;;
8881;SDS011;4477;48.736;9.176;2022-12-10T00:48:15;65.90;;;44.37;;
8881;SDS011;4477;48.736;9.176;2022-12-10T00:50:42;66.43;;;45.40;;
8881;SDS011;4477;48.736;9.176;2022-12-10T00:53:09;62.53;;;43.20;;
8881;SDS011;4477;48.736;9.176;2022-12-10T00:55:37;68.30;;;45.30;;
8881;SDS011;4477;48.736;9.176;2022-12-10T00:58:04;67.33;;;45.60;;
8881;SDS011;4477;48.736;9.176;2022-12-10T01:00:31;64.57;;;45.73;;
8881;SDS011;4477;48.736;9.176;2022-12-10T01:02:58;63.97;;;44.27;;
8881;SDS011;4477;48.736;9.176;2022-12-10T01:05:24;62.40;;;43.37;;
8881;SDS011;4477;48.736;9.176;2022-12-10T01:07:51;64.73;;;44.70;;
8881;SDS011;4477;48.736;9.176;2022-12-10T01:10:18;66.00;;;44.03;;
8881;SDS011;4477;48.736;9.176;2022-12-10T01:12:46;65.07;;;44.07;;
8881;SDS011;4477;48.736;9.176;2022-12-10T01:15:13;58.03;;;41.57;;
8881;SDS011;4477;48.736;9.176;2022-12-10T01:17:40;68.53;;;44.47;;
8881;SDS011;4477;48.736;9.176;2022-12-10T01:20:07;64.03;;;44.53;;
8881;SDS011;4477;48.736;9.176;2022-12-10T01:22:35;64.20;;;43.73;;
8881;SDS011;4477;48.736;9.176;2022-12-10T01:25:02;59.90;;;43.57;;
8881;SDS011;4477;48.736;9.176;2022-12-10T01:27:30;64.97;;;42.87;;
8881;SDS011;4477;48.736;9.176;2022-12-10T01:29:58;60.67;;;44.17;;
8881;SDS011;4477;48.736;9.176;2022-12-10T01:32:25;58.40;;;42.37;;
8881;SDS011;4477;48.736;9.176;2022-12-10T01:34:51;57.80;;;41.87;;
8881;SDS011;4477;48.736;9.176;2022-12-10T01:37:18;61.73;;;41.90;;
8881;SDS011;4477;48.736;9.176;2022-12-10T01:39:45;60.90;;;41.10;;
8881;SDS011;4477;48.736;9.176;2022-12-10T01:42:12;63.43;;;43.47;;
8881;SDS011;4477;48.736;9.176;2022-12-10T01:45:05;61.23;;;44.00;;
8881;SDS011;4477;48.736;9.176;2022-12-10T01:47:34;59.73;;;43.17;;
8881;SDS011;4477;48.736;9.176;2022-12-10T01:50:01;59.63;;;41.90;;
8881;SDS011;4477;48.736;9.176;2022-12-10T01:52:29;55.73;;;40.70;;
8881;SDS011;4477;48.736;9.176;2022-12-10T01:54:56;56.30;;;41.80;;
8881;SDS011;4477;48.736;9.176;2022-12-10T01:57:23;62.27;;;41.97;;
8881;SDS011;4477;48.736;9.176;2022-12-10T01:59:53;60.87;;;42.43;;
8881;SDS011;4477;48.736;9.176;2022-12-10T02:02:26;58.97;;;41.23;;
8881;SDS011;4477;48.736;9.176;2022-12-10T02:07:31;60.40;;;42.77;;
8881;SDS011;4477;48.736;9.176;2022-12-10T02:10:06;64.03;;;42.83;;
8881;SDS011;4477;48.736;9.176;2022-12-10T02:12:42;59.93;;;42.10;;
8881;SDS011;4477;48.736;9.176;2022-12-10T02:15:13;62.37;;;42.17;;
8881;SDS011;4477;48.736;9.176;2022-12-10T02:17:45;57.27;;;41.30;;
8881;SDS011;4477;48.736;9.176;2022-12-10T02:20:15;57.60;;;42.80;;
8881;SDS011;4477;48.736;9.176;2022-12-10T02:22:46;57.53;;;40.73;;
8881;SDS011;4477;48.736;9.176;2022-12-10T02:25:17;60.27;;;41.50;;
8881;SDS011;4477;48.736;9.176;2022-12-10T02:27:47;57.57;;;42.70;;
8881;SDS011;4477;48.736;9.176;2022-12-10T02:30:21;64.07;;;42.50;;
8881;SDS011;4477;48.736;9.176;2022-12-10T02:32:48;62.97;;;42.87;;
8881;SDS011;4477;48.736;9.176;2022-12-10T02:35:17;56.77;;;41.17;;
8881;SDS011;4477;48.736;9.176;2022-12-10T02:37:48;57.67;;;42.13;;
8881;SDS011;4477;48.736;9.176;2022-12-10T02:40:18;58.50;;;41.87;;
8881;SDS011;4477;48.736;9.176;2022-12-10T02:42:49;60.27;;;42.00;;
8881;SDS011;4477;48.736;9.176;2022-12-10T02:45:17;59.87;;;41.60;;
8881;SDS011;4477;48.736;9.176;2022-12-10T02:47:46;60.53;;;41.50;;
8881;SDS011;4477;48.736;9.176;2022-12-10T02:50:14;59.40;;;40.90;;
8881;SDS011;4477;48.736;9.176;2022-12-10T02:52:44;60.93;;;40.47;;
8881;SDS011;4477;48.736;9.176;2022-12-10T02:55:11;61.93;;;41.93;;
8881;SDS011;4477;48.736;9.176;2022-12-10T02:57:40;54.77;;;39.63;;
8881;SDS011;4477;48.736;9.176;2022-12-10T03:00:16;58.70;;;40.73;;
8881;SDS011;4477;48.736;9.176;2022-12-10T03:02:58;59.97;;;41.27;;
8881;SDS011;4477;48.736;9.176;2022-12-10T03:05:40;57.70;;;40.60;;
8881;SDS011;4477;48.736;9.176;2022-12-10T03:08:12;52.90;;;38.10;;
8881;SDS011;4477;48.736;9.176;2022-12-10T03:10:45;56.03;;;38.63;;
8881;SDS011;4477;48.736;9.176;2022-12-10T03:13:20;52.43;;;38.77;;
8881;SDS011;4477;48.736;9.176;2022-12-10T03:15:51;55.03;;;38.83;;
8881;SDS011;4477;48.736;9.176;2022-12-10T03:18:22;56.27;;;39.67;;
8881;SDS011;4477;48.736;9.176;2022-12-10T03:20:51;58.67;;;40.90;;
8881;SDS011;4477;48.736;9.176;2022-12-10T03:23:20;62.03;;;40.20;;
8881;SDS011;4477;48.736;9.176;2022-12-10T03:25:48;56.23;;;39.60;;
8881;SDS011;4477;48.736;9.176;2022-12-10T03:28:16;60.70;;;41.20;;
8881;SDS011;4477;48.736;9.176;2022-12-10T03:30:45;53.47;;;37.93;;
8881;SDS011;4477;48.736;9.176;2022-12-10T03:33:13;59.43;;;41.10;;
8881;SDS011;4477;48.736;9.176;2022-12-10T03:35:42;58.10;;;39.73;;
8881;SDS011;4477;48.736;9.176;2022-12-10T03:38:10;57.83;;;41.00;;
8881;SDS011;4477;48.736;9.176;2022-12-10T03:40:37;51.20;;;38.03;;
8881;SDS011;4477;48.736;9.176;2022-12-10T03:43:04;53.40;;;39.37;;
8881;SDS011;4477;48.736;9.176;2022-12-10T03:45:30;57.47;;;38.87;;
8881;SDS011;4477;48.736;9.176;2022-12-10T03:47:57;57.67;;;39.90;;
8881;SDS011;4477;48.736;9.176;2022-12-10T03:50:24;56.33;;;40.07;;
8881;SDS011;4477;48.736;9.176;2022-12-10T03:52:52;62.87;;;41.83;;
8881;SDS011;4477;48.736;9.176;2022-12-10T03:55:19;55.80;;;39.53;;
8881;SDS011;4477;48.736;9.176;2022-12-10T03:57:46;61.13;;;41.10;;
8881;SDS011;4477;48.736;9.176;2022-12-10T04:00:13;59.60;;;41.57;;
8881;SDS011;4477;48.736;9.176;2022-12-10T04:02:41;57.57;;;39.90;;
8881;SDS011;4477;48.736;9.176;2022-12-10T04:05:07;61.57;;;41.07;;
8881;SDS011;4477;48.736;9.176;2022-12-10T04:07:34;57.57;;;41.37;;
8881;SDS011;4477;48.736;9.176;2022-12-10T04:10:03;59.23;;;41.90;;
8881;SDS011;4477;48.736;9.176;2022-12-10T04:12:30;59.00;;;40.90;;
8881;SDS011;4477;48.736;9.176;2022-12-10T04:14:57;59.43;;;40.80;;
8881;SDS011;4477;48.736;9.176;2022-12-10T04:17:41;53.03;;;39.77;;
8881;SDS011;4477;48.736;9.176;2022-12-10T04:20:08;60.10;;;41.77;;
8881;SDS011;4477;48.736;9.176;2022-12-10T04:22:55;59.53;;;41.83;;
8881;SDS011;4477;48.736;9.176;2022-12-10T04:25:56;58.73;;;40.93;;
8881;SDS011;4477;48.736;9.176;2022-12-10T04:28:40;57.73;;;40.97;;
8881;SDS011;4477;48.736;9.176;2022-12-10T04:31:07;59.93;;;40.63;;
8881;SDS011;4477;48.736;9.176;2022-12-10T04:33:34;57.27;;;41.30;;
8881;SDS011;4477;48.736;9.176;2022-12-10T04:36:00;59.67;;;39.97;;
8881;SDS011;4477;48.736;9.176;2022-12-10T04:38:27;60.30;;;42.03;;
8881;SDS011;4477;48.736;9.176;2022-12-10T04:40:55;55.60;;;39.77;;
8881;SDS011;4477;48.736;9.176;2022-12-10T04:43:22;60.40;;;41.40;;
8881;SDS011;4477;48.736;9.176;2022-12-10T04:45:49;56.17;;;40.17;;
8881;SDS011;4477;48.736;9.176;2022-12-10T04:48:15;53.27;;;38.07;;
8881;SDS011;4477;48.736;9.176;2022-12-10T04:50:42;57.07;;;39.07;;
8881;SDS011;4477;48.736;9.176;2022-12-10T04:53:09;56.03;;;39.83;;
8881;SDS011;4477;48.736;9.176;2022-12-10T04:55:36;54.43;;;38.83;;
8881;SDS011;4477;48.736;9.176;2022-12-10T04:58:04;56.80;;;40.53;;
8881;SDS011;4477;48.736;9.176;2022-12-10T05:00:30;57.97;;;40.20;;
8881;SDS011;4477;48.736;9.176;2022-12-10T05:02:57;56.80;;;40.03;;
8881;SDS011;4477;48.736;9.176;2022-12-10T05:05:25;58.47;;;39.43;;
8881;SDS011;4477;48.736;9.176;2022-12-10T05:07:52;58.63;;;40.43;;
8881;SDS011;4477;48.736;9.176;2022-12-10T05:10:18;56.17;;;39.40;;
8881;SDS011;4477;48.736;9.176;2022-12-10T05:12:45;56.93;;;40.13;;
8881;SDS011;4477;48.736;9.176;2022-12-10T05:15:13;58.40;;;41.63;;
8881;SDS011;4477;48.736;9.176;2022-12-10T05:17:40;59.43;;;40.43;;
8881;SDS011;4477;48.736;9.176;2022-12-10T05:20:08;61.77;;;41.53;;
8881;SDS011;4477;48.736;9.176;2022-12-10T05:22:35;61.90;;;42.07;;
8881;SDS011;4477;48.736;9.176;2022-12-10T05:25:19;59.17;;;40.37;;
8881;SDS011;4477;48.736;9.176;2022-12-10T05:27:46;58.33;;;41.80;;
8881;SDS011;4477;48.736;9.176;2022-12-10T05:30:14;61.57;;;42.57;;
8881;SDS011;4477;48.736;9.176;2022-12-10T05:32:43;57.97;;;41.93;;
8881;SDS011;4477;48.736;9.176;2022-12-10T05:35:10;63.80;;;43.10;;
8881;SDS011;4477;48.736;9.176;2022-12-10T05:37:37;61.77;;;42.97;;
8881;SDS011;4477;48.736;9.176;2022-12-10T05:40:04;62.17;;;43.53;;
8881;SDS011;4477;48.736;9.176;2022-12-10T05:42:32;65.37;;;44.60;;
8881;SDS011;4477;48.736;9.176;2022-12-10T05:44:59;61.80;;;43.10;;
8881;SDS011;4477;48.736;9.176;2022-12-10T05:47:27;64.83;;;44.43;;
8881;SDS011;4477;48.736;9.176;2022-12-10T05:49:53;66.00;;;45.70;;
8881;SDS011;4477;48.736;9.176;2022-12-10T05:52:20;69.90;;;44.77;;
8881;SDS011;4477;48.736;9.176;2022-12-10T05:54:47;68.33;;;44.93;;
8881;SDS011;4477;48.736;9.176;2022-12-10T05:57:14;63.77;;;43.87;;
8881;SDS011;4477;48.736;9.176;2022-12-10T05:59:41;60.90;;;44.10;;
8881;SDS011;4477;48.736;9.176;2022-12-10T06:02:09;67.63;;;44.93;;
8881;SDS011;4477;48.736;9.176;2022-12-10T06:04:37;67.20;;;46.23;;
8881;SDS011;4477;48.736;9.176;2022-12-10T06:07:03;70.67;;;46.00;;
8881;SDS011;4477;48.736;9.176;2022-12-10T06:09:30;67.57;;;45.33;;
8881;SDS011;4477;48.736;9.176;2022-12-10T06:11:57;67.60;;;47.77;;
8881;SDS011;4477;48.736;9.176;2022-12-10T06:14:24;69.73;;;47.23;;
8881;SDS011;4477;48.736;9.176;2022-12-10T06:16:51;71.97;;;48.27;;
8881;SDS011;4477;48.736;9.176;2022-12-10T06:19:17;71.43;;;47.30;;
8881;SDS011;4477;48.736;9.176;2022-12-10T06:21:45;73.93;;;48.30;;
8881;SDS011;4477;48.736;9.176;2022-12-10T06:24:12;70.37;;;46.43;;
8881;SDS011;4477;48.736;9.176;2022-12-10T06:26:39;66.57;;;45.57;;
8881;SDS011;4477;48.736;9.176;2022-12-10T06:29:06;65.07;;;45.57;;
8881;SDS011;4477;48.736;9.176;2022-12-10T06:31:33;67.87;;;45.50;;
8881;SDS011;4477;48.736;9.176;2022-12-10T06:33:59;70.10;;;47.10;;
8881;SDS011;4477;48.736;9.176;2022-12-10T06:36:27;68.67;;;46.63;;
8881;SDS011;4477;48.736;9.176;2022-12-10T06:38:55;65.37;;;45.13;;
8881;SDS011;4477;48.736;9.176;2022-12-10T06:41:22;66.77;;;45.73;;
8881;SDS011;4477;48.736;9.176;2022-12-10T06:43:48;67.33;;;47.03;;
8881;SDS011;4477;48.736;9.176;2022-12-10T06:46:16;72.87;;;48.60;;
8881;SDS011;4477;48.736;9.176;2022-12-10T06:48:44;66.47;;;44.77;;
8881;SDS011;4477;48.736;9.176;2022-12-10T06:51:12;75.17;;;46.50;;
8881;SDS011;4477;48.736;9.176;2022-12-10T06:53:40;65.93;;;45.77;;
8881;SDS011;4477;48.736;9.176;2022-12-10T06:56:09;65.00;;;45.10;;
8881;SDS011;4477;48.736;9.176;2022-12-10T06:58:38;70.37;;;45.93;;
8881;SDS011;4477;48.736;9.176;2022-12-10T07:01:07;70.43;;;45.83;;
8881;SDS011;4477;48.736;9.176;2022-12-10T07:11:24;65.10;;;44.13;;
8881;SDS011;4477;48.736;9.176;2022-12-10T07:13:51;71.97;;;47.10;;
8881;SDS011;4477;48.736;9.176;2022-12-10T07:16:19;63.53;;;43.53;;
8881;SDS011;4477;48.736;9.176;2022-12-10T07:18:47;61.13;;;43.87;;
8881;SDS011;4477;48.736;9.176;2022-12-10T07:21:16;66.30;;;43.83;;
8881;SDS011;4477;48.736;9.176;2022-12-10T07:23:45;66.17;;;45.23;;
8881;SDS011;4477;48.736;9.176;2022-12-10T07:26:12;64.07;;;44.13;;
8881;SDS011;4477;48.736;9.176;2022-12-10T07:28:40;67.57;;;44.17;;
8881;SDS011;4477;48.736;9.176;2022-12-10T07:31:08;63.30;;;44.90;;
8881;SDS011;4477;48.736;9.176;2022-12-10T07:33:35;67.07;;;43.87;;
8881;SDS011;4477;48.736;9.176;2022-12-10T07:36:03;66.00;;;45.93;;
8881;SDS011;4477;48.736;9.176;2022-12-10T07:38:31;65.27;;;47.47;;
8881;SDS011;4477;48.736;9.176;2022-12-10T07:41:01;65.90;;;46.83;;
8881;SDS011;4477;48.736;9.176;2022-12-10T07:43:29;61.33;;;44.50;;
8881;SDS011;4477;48.736;9.176;2022-12-10T07:45:57;63.97;;;45.47;;
8881;SDS011;4477;48.736;9.176;2022-12-10T07:48:29;65.97;;;45.80;;
8881;SDS011;4477;48.736;9.176;2022-12-10T07:50:56;61.50;;;42.80;;
8881;SDS011;4477;48.736;9.176;2022-12-10T07:53:23;61.70;;;43.03;;
8881;SDS011;4477;48.736;9.176;2022-12-10T07:55:50;64.67;;;42.83;;
8881;SDS011;4477;48.736;9.176;2022-12-10T07:58:17;60.07;;;42.23;;
8881;SDS011;4477;48.736;9.176;2022-12-10T08:00:44;58.70;;;41.93;;
8881;SDS011;4477;48.736;9.176;2022-12-10T08:03:12;53.17;;;40.83;;
8881;SDS011;4477;48.736;9.176;2022-12-10T08:05:39;57.40;;;41.40;;
8881;SDS011;4477;48.736;9.176;2022-12-10T08:08:06;55.27;;;40.53;;
8881;SDS011;4477;48.736;9.176;2022-12-10T08:10:33;57.43;;;41.37;;
8881;SDS011;4477;48.736;9.176;2022-12-10T08:13:00;56.60;;;38.40;;
8881;SDS011;4477;48.736;9.176;2022-12-10T08:15:27;57.23;;;39.93;;
8881;SDS011;4477;48.736;9.176;2022-12-10T08:17:54;65.73;;;43.90;;
8881;SDS011;4477;48.736;9.176;2022-12-10T08:20:23;58.57;;;42.23;;
8881;SDS011;4477;48.736;9.176;2022-12-10T08:22:50;52.70;;;38.17;;
8881;SDS011;4477;48.736;9.176;2022-12-10T08:25:17;48.97;;;38.10;;
8881;SDS011;4477;48.736;9.176;2022-12-10T08:27:44;54.63;;;38.67;;
8881;SDS011;4477;48.736;9.176;2022-12-10T08:30:11;49.37;;;36.00;;
8881;SDS011;4477;48.736;9.176;2022-12-10T08:32:39;47.77;;;36.33;;
8881;SDS011;4477;48.736;9.176;2022-12-10T08:35:06;48.00;;;35.57;;
8881;SDS011;4477;48.736;9.176;2022-12-10T08:37:34;47.03;;;36.07;;
8881;SDS011;4477;48.736;9.176;2022-12-10T08:40:01;44.63;;;34.13;;
8881;SDS011;4477;48.736;9.176;2022-12-10T08:42:28;53.57;;;37.07;;
8881;SDS011;4477;48.736;9.176;2022-12-10T08:44:55;47.00;;;35.57;;
8881;SDS011;4477;48.736;9.176;2022-12-10T08:47:22;45.27;;;35.53;;
8881;SDS011;4477;48.736;9.176;2022-12-10T08:49:49;48.50;;;35.67;;
8881;SDS011;4477;48.736;9.176;2022-12-10T08:52:16;44.37;;;34.67;;
8881;SDS011;4477;48.736;9.176;2022-12-10T08:54:44;45.60;;;35.43;;
8881;SDS011;4477;48.736;9.176;2022-12-10T08:57:12;45.97;;;35.03;;
8881;SDS011;4477;48.736;9.176;2022-12-10T08:59:39;43.20;;;35.43;;
8881;SDS011;4477;48.736;9.176;2022-12-10T09:02:07;42.23;;;33.57;;
8881;SDS011;4477;48.736;9.176;2022-12-10T09:04:35;43.20;;;33.70;;
8881;SDS011;4477;48.736;9.176;2022-12-10T09:07:04;42.60;;;33.50;;
8881;SDS011;4477;48.736;9.176;2022-12-10T09:09:31;43.80;;;33.10;;
8881;SDS011;4477;48.736;9.176;2022-12-10T09:11:59;38.87;;;30.53;;
8881;SDS011;4477;48.736;9.176;2022-12-10T09:14:26;41.43;;;32.33;;
8881;SDS011;4477;48.736;9.176;2022-12-10T09:16:53;40.93;;;31.87;;
8881;SDS011;4477;48.736;9.176;2022-12-10T09:19:19;39.23;;;30.93;;
8881;SDS011;4477;48.736;9.176;2022-12-10T09:21:46;40.43;;;31.40;;
8881;SDS011;4477;48.736;9.176;2022-12-10T09:24:13;39.57;;;31.60;;
8881;SDS011;4477;48.736;9.176;2022-12-10T09:26:40;41.20;;;32.73;;
8881;SDS011;4477;48.736;9.176;2022-12-10T09:29:08;40.47;;;32.30;;
8881;SDS011;4477;48.736;9.176;2022-12-10T09:31:35;40.07;;;30.63;;
8881;SDS011;4477;48.736;9.176;2022-12-10T09:34:02;37.67;;;30.73;;
8881;SDS011;4477;48.736;9.176;2022-12-10T09:36:28;37.17;;;31.33;;
8881;SDS011;4477;48.736;9.176;2022-12-10T09:38:55;38.40;;;31.30;;
8881;SDS011;4477;48.736;9.176;2022-12-10T09:44:27;35.43;;;28.70;;
8881;SDS011;4477;48.736;9.176;2022-12-10T09:47:03;37.13;;;30.00;;
8881;SDS011;4477;48.736;9.176;2022-12-10T09:49:35;40.07;;;30.73;;
8881;SDS011;4477;48.736;9.176;2022-12-10T09:52:13;37.10;;;30.67;;
8881;SDS011;4477;48.736;9.176;2022-12-10T09:54:44;40.50;;;31.53;;
8881;SDS011;4477;48.736;9.176;2022-12-10T09:57:16;38.53;;;30.90;;
8881;SDS011;4477;48.736;9.176;2022-12-10T09:59:48;38.67;;;29.80;;
8881;SDS011;4477;48.736;9.176;2022-12-10T10:02:19;37.63;;;29.87;;
8881;SDS011;4477;48.736;9.176;2022-12-10T10:04:48;39.33;;;29.93;;
8881;SDS011;4477;48.736;9.176;2022-12-10T10:07:17;34.93;;;30.07;;
8881;SDS011;4477;48.736;9.176;2022-12-10T10:09:47;35.33;;;29.47;;
8881;SDS011;4477;48.736;9.176;2022-12-10T10:12:15;35.00;;;29.07;;
8881;SDS011;4477;48.736;9.176;2022-12-10T10:14:42;36.27;;;28.93;;
8881;SDS011;4477;48.736;9.176;2022-12-10T10:17:12;39.07;;;31.00;;
8881;SDS011;4477;48.736;9.176;2022-12-10T10:19:44;36.57;;;30.13;;
8881;SDS011;4477;48.736;9.176;2022-12-10T10:22:11;36.90;;;29.80;;
8881;SDS011;4477;48.736;9.176;2022-12-10T10:24:39;35.80;;;29.03;;
8881;SDS011;4477;48.736;9.176;2022-12-10T10:27:13;40.23;;;31.03;;
8881;SDS011;4477;48.736;9.176;2022-12-10T10:29:42;37.97;;;29.53;;
8881;SDS011;4477;48.736;9.176;2022-12-10T10:32:13;36.87;;;29.43;;
8881;SDS011;4477;48.736;9.176;2022-12-10T10:34:42;36.50;;;29.63;;
8881;SDS011;4477;48.736;9.176;2022-12-10T10:37:14;35.20;;;29.10;;
8881;SDS011;4477;48.736;9.176;2022-12-10T10:39:45;36.00;;;28.23;;
8881;SDS011;4477;48.736;9.176;2022-12-10T10:42:18;33.37;;;27.43;;
8881;SDS011;4477;48.736;9.176;2022-12-10T10:44:53;35.63;;;28.90;;
8881;SDS011;4477;48.736;9.176;2022-12-10T10:47:25;34.97;;;28.60;;
8881;SDS011;4477;48.736;9.176;2022-12-10T10:49:54;33.30;;;27.80;;
8881;SDS011;4477;48.736;9.176;2022-12-10T10:52:22;35.00;;;28.87;;
8881;SDS011;4477;48.736;9.176;2022-12-10T10:54:53;34.17;;;28.23;;
8881;SDS011;4477;48.736;9.176;2022-12-10T10:57:21;35.87;;;27.87;;
8881;SDS011;4477;48.736;9.176;2022-12-10T10:59:51;32.37;;;26.67;;
8881;SDS011;4477;48.736;9.176;2022-12-10T11:02:20;35.10;;;28.83;;
8881;SDS011;4477;48.736;9.176;2022-12-10T11:04:53;32.03;;;26.60;;
8881;SDS011;4477;48.736;9.176;2022-12-10T11:07:24;31.00;;;25.80;;
8881;SDS011;4477;48.736;9.176;2022-12-10T11:09:58;32.17;;;27.23;;
8881;SDS011;4477;48.736;9.176;2022-12-10T11:12:32;33.60;;;27.60;;
8881;SDS011;4477;48.736;9.176;2022-12-10T11:15:01;34.13;;;25.67;;
8881;SDS011;4477;48.736;9.176;2022-12-10T11:17:40;32.87;;;26.87;;
8881;SDS011;4477;48.736;9.176;2022-12-10T11:20:17;31.77;;;25.57;;
8881;SDS011;4477;48.736;9.176;2022-12-10T11:22:48;31.47;;;25.10;;
8881;SDS011;4477;48.736;9.176;2022-12-10T11:25:16;30.87;;;24.80;;
8881;SDS011;4477;48.736;9.176;2022-12-10T11:27:47;32.37;;;24.80;;
8881;SDS011;4477;48.736;9.176;2022-12-10T11:30:20;31.73;;;24.60;;
8881;SDS011;4477;48.736;9.176;2022-12-10T11:32:53;31.00;;;24.50;;
8881;SDS011;4477;48.736;9.176;2022-12-10T11:35:41;29.87;;;24.73;;
8881;SDS011;4477;48.736;9.176;2022-12-10T11:38:19;31.60;;;25.97;;
8881;SDS011;4477;48.736;9.176;2022-12-10T11:40:52;29.90;;;24.83;;
8881;SDS011;4477;48.736;9.176;2022-12-10T11:43:33;32.23;;;24.83;;
8881;SDS011;4477;48.736;9.176;2022-12-10T11:46:14;29.67;;;23.97;;
8881;SDS011;4477;48.736;9.176;2022-12-10T11:49:00;29.47;;;24.43;;
8881;SDS011;4477;48.736;9.176;2022-12-10T11:51:35;32.33;;;24.47;;
8881;SDS011;4477;48.736;9.176;2022-12-10T11:54:17;29.83;;;24.40;;
8881;SDS011;4477;48.736;9.176;2022-12-10T11:56:56;30.40;;;24.07;;
8881;SDS011;4477;48.736;9.176;2022-12-10T11:59:33;29.93;;;24.67;;
8881;SDS011;4477;48.736;9.176;2022-12-10T12:02:11;28.23;;;24.30;;
8881;SDS011;4477;48.736;9.176;2022-12-10T12:05:00;29.50;;;24.20;;
8881;SDS011;4477;48.736;9.176;2022-12-10T12:07:41;29.47;;;24.13;;
8881;SDS011;4477;48.736;9.176;2022-12-10T12:10:34;30.00;;;23.43;;
8881;SDS011;4477;48.736;9.176;2022-12-10T12:13:11;29.13;;;22.63;;
8881;SDS011;4477;48.736;9.176;2022-12-10T12:15:42;28.80;;;22.83;;
8881;SDS011;4477;48.736;9.176;2022-12-10T12:18:13;26.63;;;22.10;;
8881;SDS011;4477;48.736;9.176;2022-12-10T12:20:45;26.63;;;20.83;;
8881;SDS011;4477;48.736;9.176;2022-12-10T12:23:18;25.27;;;22.33;;
8881;SDS011;4477;48.736;9.176;2022-12-10T12:25:51;25.53;;;21.47;;
8881;SDS011;4477;48.736;9.176;2022-12-10T12:28:24;26.80;;;21.87;;
8881;SDS011;4477;48.736;9.176;2022-12-10T12:30:57;27.93;;;21.97;;
8881;SDS011;4477;48.736;9.176;2022-12-10T12:33:28;29.90;;;22.37;;
8881;SDS011;4477;48.736;9.176;2022-12-10T12:36:00;25.77;;;21.60;;
8881;SDS011;4477;48.736;9.176;2022-12-10T12:38:35;26.40;;;23.27;;
8881;SDS011;4477;48.736;9.176;2022-12-10T12:41:10;25.60;;;21.50;;
8881;SDS011;4477;48.736;9.176;2022-12-10T12:43:43;28.30;;;23.77;;
8881;SDS011;4477;48.736;9.176;2022-12-10T12:46:18;28.23;;;22.70;;
8881;SDS011;4477;48.736;9.176;2022-12-10T12:48:52;30.70;;;22.40;;
8881;SDS011;4477;48.736;9.176;2022-12-10T12:51:23;29.73;;;23.00;;
8881;SDS011;4477;48.736;9.176;2022-12-10T12:53:56;30.97;;;23.83;;
8881;SDS011;4477;48.736;9.176;2022-12-10T12:56:25;29.67;;;23.93;;
8881;SDS011;4477;48.736;9.176;2022-12-10T12:59:08;27.73;;;23.53;;
8881;SDS011;4477;48.736;9.176;2022-12-10T13:01:39;28.27;;;21.83;;
8881;SDS011;4477;48.736;9.176;2022-12-10T13:04:09;25.73;;;21.47;;
8881;SDS011;4477;48.736;9.176;2022-12-10T13:06:38;28.67;;;23.63;;
8881;SDS011;4477;48.736;9.176;2022-12-10T13:09:22;24.93;;;20.67;;
8881;SDS011;4477;48.736;9.176;2022-12-10T13:14:54;24.43;;;19.93;;
8881;SDS011;4477;48.736;9.176;2022-12-10T13:17:27;27.77;;;21.73;;
8881;SDS011;4477;48.736;9.176;2022-12-10T13:23:02;25.97;;;20.33;;
8881;SDS011;4477;48.736;9.176;2022-12-10T13:25:41;28.17;;;21.00;;
8881;SDS011;4477;48.736;9.176;2022-12-10T13:28:23;28.20;;;23.17;;
8881;SDS011;4477;48.736;9.176;2022-12-10T13:33:46;30.13;;;23.27;;
8881;SDS011;4477;48.736;9.176;2022-12-10T13:36:19;32.57;;;24.37;;
8881;SDS011;4477;48.736;9.176;2022-12-10T13:38:56;31.23;;;25.10;;
8881;SDS011;4477;48.736;9.176;2022-12-10T13:41:40;33.47;;;25.13;;
8881;SDS011;4477;48.736;9.176;2022-12-10T13:44:46;34.53;;;26.07;;
8881;SDS011;4477;48.736;9.176;2022-12-10T13:47:25;34.03;;;25.77;;
8881;SDS011;4477;48.736;9.176;2022-12-10T13:49:53;34.70;;;26.17;;
8881;SDS011;4477;48.736;9.176;2022-12-10T13:52:23;31.80;;;25.73;;
8881;SDS011;4477;48.736;9.176;2022-12-10T13:55:02;33.63;;;26.27;;
8881;SDS011;4477;48.736;9.176;2022-12-10T13:57:55;35.67;;;28.00;;
8881;SDS011;4477;48.736;9.176;2022-12-10T14:00:33;35.27;;;26.90;;
8881;SDS011;4477;48.736;9.176;2022-12-10T14:03:09;35.27;;;28.10;;
8881;SDS011;4477;48.736;9.176;2022-12-10T14:05:56;34.20;;;27.10;;
8881;SDS011;4477;48.736;9.176;2022-12-10T14:08:36;36.97;;;28.00;;
8881;SDS011;4477;48.736;9.176;2022-12-10T14:11:06;36.40;;;28.13;;
8881;SDS011;4477;48.736;9.176;2022-12-10T14:13:42;38.23;;;29.53;;
8881;SDS011;4477;48.736;9.176;2022-12-10T14:16:13;40.20;;;29.47;;
8881;SDS011;4477;48.736;9.176;2022-12-10T14:18:41;38.93;;;30.03;;
8881;SDS011;4477;48.736;9.176;2022-12-10T14:21:10;39.60;;;30.27;;
8881;SDS011;4477;48.736;9.176;2022-12-10T14:23:43;37.23;;;27.30;;
8881;SDS011;4477;48.736;9.176;2022-12-10T14:26:12;38.77;;;28.40;;
8881;SDS011;4477;48.736;9.176;2022-12-10T14:28:43;39.33;;;29.30;;
8881;SDS011;4477;48.736;9.176;2022-12-10T14:31:16;38.63;;;28.50;;
8881;SDS011;4477;48.736;9.176;2022-12-10T14:33:45;38.17;;;28.73;;
8881;SDS011;4477;48.736;9.176;2022-12-10T14:36:14;37.50;;;27.27;;
8881;SDS011;4477;48.736;9.176;2022-12-10T14:38:47;39.63;;;27.93;;
8881;SDS011;4477;48.736;9.176;2022-12-10T14:41:16;37.00;;;27.30;;
8881;SDS011;4477;48.736;9.176;2022-12-10T14:43:49;37.13;;;27.90;;
8881;SDS011;4477;48.736;9.176;2022-12-10T14:46:18;36.97;;;28.40;;
8881;SDS011;4477;48.736;9.176;2022-12-10T14:48:48;36.60;;;27.57;;
8881;SDS011;4477;48.736;9.176;2022-12-10T14:51:18;35.47;;;27.40;;
8881;SDS011;4477;48.736;9.176;2022-12-10T14:53:47;38.97;;;29.23;;
8881;SDS011;4477;48.736;9.176;2022-12-10T14:56:16;37.23;;;27.87;;
8881;SDS011;4477;48.736;9.176;2022-12-10T14:58:48;35.00;;;27.10;;
8881;SDS011;4477;48.736;9.176;2022-12-10T15:01:21;35.03;;;26.03;;
8881;SDS011;4477;48.736;9.176;2022-12-10T15:03:53;38.37;;;28.40;;
8881;SDS011;4477;48.736;9.176;2022-12-10T15:06:20;38.60;;;29.17;;
8881;SDS011;4477;48.736;9.176;2022-12-10T15:08:48;37.57;;;27.57;;
8881;SDS011;4477;48.736;9.176;2022-12-10T15:11:16;37.33;;;26.87;;
8881;SDS011;4477;48.736;9.176;2022-12-10T15:13:45;36.40;;;26.07;;
8881;SDS011;4477;48.736;9.176;2022-12-10T15:16:18;35.10;;;26.20;;
8881;SDS011;4477;48.736;9.176;2022-12-10T15:18:46;36.13;;;26.97;;
8881;SDS011;4477;48.736;9.176;2022-12-10T15:21:13;35.20;;;25.70;;
8881;SDS011;4477;48.736;9.176;2022-12-10T15:23:45;33.97;;;25.50;;
8881;SDS011;4477;48.736;9.176;2022-12-10T15:26:14;36.07;;;26.17;;
8881;SDS011;4477;48.736;9.176;2022-12-10T15:28:45;37.33;;;26.83;;